createdAt,value
2019-04-01T00:00:55.968Z,10.60
2019-04-01T00:03:26.542Z,10.60
2019-04-01T00:05:57.059Z,10.40
2019-04-01T00:08:27.611Z,10.40
2019-04-01T00:10:58.851Z,10.40
2019-04-01T00:13:29.428Z,10.40
2019-04-01T00:16:00.011Z,10.40
2019-04-01T00:18:30.956Z,10.40
2019-04-01T00:21:01.501Z,10.40
2019-04-01T00:23:32.025Z,10.30
2019-04-01T00:26:03.556Z,10.40
2019-04-01T00:28:34.328Z,10.40
2019-04-01T00:31:04.852Z,10.40
2019-04-01T00:33:35.389Z,10.40
2019-04-01T00:36:06.297Z,10.40
2019-04-01T00:38:36.840Z,10.30
2019-04-01T00:41:07.498Z,10.40
2019-04-01T00:43:55.301Z,10.30
2019-04-01T00:46:25.892Z,10.20
2019-04-01T00:48:56.383Z,10.20
2019-04-01T00:51:27.546Z,10.20
2019-04-01T00:53:58.588Z,10.10
2019-04-01T00:56:29.479Z,10.00
2019-04-01T00:59:01.826Z,10.00
2019-04-01T01:01:32.407Z,10.00
2019-04-01T01:04:02.920Z,10.00
2019-04-01T01:06:33.848Z,9.90
2019-04-01T01:09:06.480Z,9.70
2019-04-01T01:11:38.007Z,9.60
2019-04-01T01:14:08.466Z,9.50
2019-04-01T01:16:39.007Z,9.50
2019-04-01T01:19:09.995Z,9.50
2019-04-01T01:21:41.502Z,9.40
2019-04-01T01:24:12.452Z,9.50
2019-04-01T01:26:43.442Z,9.50
2019-04-01T01:29:13.993Z,9.40
2019-04-01T01:31:44.581Z,9.40
2019-04-01T01:34:15.484Z,9.50
2019-04-01T01:36:46.023Z,9.50
2019-04-01T01:39:16.538Z,9.60
2019-04-01T01:41:47.472Z,9.60
2019-04-01T01:44:17.982Z,9.60
2019-04-01T01:46:48.563Z,9.60
2019-04-01T01:49:19.044Z,9.60
2019-04-01T01:51:50.720Z,9.60
2019-04-01T01:54:21.251Z,9.60
2019-04-01T01:56:51.808Z,9.60
2019-04-01T01:59:22.331Z,9.60
2019-04-01T02:01:53.829Z,9.60
2019-04-01T02:04:24.801Z,9.60
2019-04-01T02:06:55.348Z,9.60
2019-04-01T02:09:26.015Z,9.50
2019-04-01T02:11:56.551Z,9.40
2019-04-01T02:14:27.413Z,9.40
2019-04-01T02:16:57.961Z,9.40
2019-04-01T02:19:28.567Z,9.40
2019-04-01T02:21:59.058Z,9.40
2019-04-01T02:24:30.077Z,9.40
2019-04-01T02:27:01.110Z,9.30
2019-04-01T02:29:31.589Z,9.30
2019-04-01T02:32:02.469Z,9.20
2019-04-01T02:34:32.967Z,9.20
2019-04-01T02:37:03.447Z,9.20
2019-04-01T02:39:34.845Z,9.10
2019-04-01T02:42:05.938Z,9.10
2019-04-01T02:44:36.438Z,9.10
2019-04-01T02:47:07.020Z,9.00
2019-04-01T02:49:37.862Z,9.00
2019-04-01T02:52:08.864Z,9.00
2019-04-01T02:54:41.002Z,9.00
2019-04-01T02:57:13.125Z,8.90
2019-04-01T02:59:43.740Z,9.00
2019-04-01T03:02:14.758Z,8.90
2019-04-01T03:04:46.337Z,8.80
2019-04-01T03:07:17.370Z,8.80
2019-04-01T03:09:47.927Z,8.80
2019-04-01T03:12:18.450Z,8.70
2019-04-01T03:14:48.983Z,8.60
2019-04-01T03:17:19.541Z,8.60
2019-04-01T03:19:50.057Z,8.50
2019-04-01T03:22:21.329Z,8.50
2019-04-01T03:24:51.869Z,8.40
2019-04-01T03:27:22.389Z,8.50
2019-04-01T03:29:52.973Z,8.50
2019-04-01T03:32:24.901Z,8.50
2019-04-01T03:34:55.429Z,8.50
2019-04-01T03:37:26.457Z,8.40
2019-04-01T03:39:57.431Z,8.30
2019-04-01T03:42:28.835Z,8.30
2019-04-01T03:44:59.324Z,8.30
2019-04-01T03:47:29.865Z,8.30
2019-04-01T03:50:00.759Z,8.30
2019-04-01T03:52:31.442Z,8.30
2019-04-01T03:55:01.970Z,8.30
2019-04-01T03:57:33.190Z,8.20
2019-04-01T04:00:03.914Z,8.20
2019-04-01T04:02:34.705Z,8.20
2019-04-01T04:05:05.407Z,8.10
2019-04-01T04:07:36.278Z,8.10
2019-04-01T04:10:07.306Z,8.00
2019-04-01T04:12:37.824Z,7.90
2019-04-01T04:15:11.225Z,7.90
2019-04-01T04:17:41.820Z,7.70
2019-04-01T04:20:14.809Z,7.70
2019-04-01T04:22:45.786Z,7.70
2019-04-01T04:25:16.344Z,7.70
2019-04-01T04:27:46.900Z,7.70
2019-04-01T04:30:21.237Z,7.70
2019-04-01T04:32:51.721Z,7.70
2019-04-01T04:35:22.277Z,7.80
2019-04-01T04:37:53.255Z,7.80
2019-04-01T04:40:23.777Z,7.80
2019-04-01T04:42:55.364Z,7.70
2019-04-01T04:45:25.893Z,7.70
2019-04-01T04:47:57.610Z,7.70
2019-04-01T04:50:28.536Z,7.70
2019-04-01T04:52:59.906Z,7.70
2019-04-01T04:55:30.430Z,7.70
2019-04-01T04:58:00.900Z,7.70
2019-04-01T05:00:31.431Z,7.80
2019-04-01T05:03:01.955Z,7.80
2019-04-01T05:05:32.469Z,7.80
2019-04-01T05:08:03.639Z,7.80
2019-04-01T05:10:34.647Z,7.80
2019-04-01T05:13:05.188Z,7.90
2019-04-01T05:15:36.089Z,8.10
2019-04-01T05:18:07.122Z,8.10
2019-04-01T05:20:39.276Z,8.10
2019-04-01T05:23:10.301Z,8.20
2019-04-01T05:25:41.549Z,8.30
2019-04-01T05:28:14.648Z,8.30
2019-04-01T05:30:46.795Z,8.30
2019-04-01T05:33:20.312Z,8.30
2019-04-01T05:35:51.333Z,8.30
2019-04-01T05:38:21.742Z,8.30
2019-04-01T05:40:53.340Z,8.30
2019-04-01T05:43:24.168Z,8.20
2019-04-01T05:45:54.555Z,8.20
2019-04-01T05:48:29.660Z,8.20
2019-04-01T05:51:00.484Z,8.20
2019-04-01T05:53:31.881Z,8.20
2019-04-01T05:56:02.624Z,8.20
2019-04-01T05:58:33.352Z,8.30
2019-04-01T06:01:11.092Z,8.40
2019-04-01T06:03:42.134Z,8.50
2019-04-01T06:06:12.633Z,8.60
2019-04-01T06:08:43.629Z,8.70
2019-04-01T06:11:14.227Z,8.60
2019-04-01T06:13:44.833Z,8.70
2019-04-01T06:16:15.663Z,8.80
2019-04-01T06:18:46.653Z,9.00
2019-04-01T06:21:17.283Z,9.10
2019-04-01T06:23:47.622Z,9.10
2019-04-01T06:26:18.456Z,9.20
2019-04-01T06:28:48.867Z,9.20
2019-04-01T06:31:19.348Z,9.50
2019-04-01T06:33:50.553Z,9.60
2019-04-01T06:36:21.356Z,9.70
2019-04-01T06:38:52.278Z,9.80
2019-04-01T06:41:23.092Z,9.90
2019-04-01T06:43:53.728Z,10.00
2019-04-01T06:46:24.424Z,10.10
2019-04-01T06:48:55.341Z,10.20
2019-04-01T06:51:27.711Z,10.30
2019-04-01T06:54:12.142Z,10.40
2019-04-01T06:56:43.221Z,10.50
2019-04-01T06:59:14.101Z,10.60
2019-04-01T07:01:44.662Z,10.80
2019-04-01T07:04:15.694Z,10.90
2019-04-01T07:06:46.445Z,11.00
2019-04-01T07:09:17.332Z,11.10
2019-04-01T07:11:48.056Z,11.10
2019-04-01T07:14:19.832Z,11.20
2019-04-01T07:16:51.458Z,11.40
2019-04-01T07:19:22.041Z,11.40
2019-04-01T07:21:54.550Z,11.50
2019-04-01T07:24:25.429Z,11.70
2019-04-01T07:26:55.936Z,11.90
2019-04-01T07:29:26.454Z,11.90
2019-04-01T07:31:57.431Z,12.00
2019-04-01T07:34:27.945Z,12.10
2019-04-01T07:36:58.612Z,12.10
2019-04-01T07:39:29.708Z,12.30
2019-04-01T07:42:02.030Z,12.50
2019-04-01T07:44:32.828Z,12.60
2019-04-01T07:47:03.332Z,12.70
2019-04-01T07:49:33.853Z,12.90
2019-04-01T07:52:05.752Z,13.00
2019-04-01T07:54:36.382Z,13.00
2019-04-01T07:57:06.884Z,13.20
2019-04-01T07:59:38.266Z,13.30
2019-04-01T08:02:09.268Z,13.40
2019-04-01T08:04:39.910Z,13.40
2019-04-01T08:07:13.563Z,13.50
2019-04-01T08:09:44.297Z,13.60
2019-04-01T08:12:14.774Z,13.80
2019-04-01T08:14:46.142Z,14.00
2019-04-01T08:17:16.663Z,14.10
2019-04-01T08:19:47.233Z,14.20
2019-04-01T08:22:17.872Z,13.90
2019-04-01T08:24:49.070Z,14.00
2019-04-01T08:27:20.532Z,14.20
2019-04-01T08:29:51.456Z,14.50
2019-04-01T08:32:22.025Z,14.60
2019-04-01T08:34:52.928Z,14.80
2019-04-01T08:37:23.449Z,15.00
2019-04-01T08:39:54.820Z,15.20
2019-04-01T08:42:25.393Z,15.20
2019-04-01T08:44:56.308Z,15.20
2019-04-01T08:47:27.203Z,15.20
2019-04-01T08:49:57.720Z,15.20
2019-04-01T08:52:28.281Z,15.30
2019-04-01T08:54:59.942Z,15.40
2019-04-01T08:57:30.793Z,15.40
2019-04-01T09:00:01.298Z,15.60
2019-04-01T09:02:33.080Z,15.80
2019-04-01T09:05:04.362Z,16.10
2019-04-01T09:07:35.356Z,16.30
2019-04-01T09:10:06.600Z,16.50
2019-04-01T09:12:37.220Z,16.60
2019-04-01T09:15:08.681Z,16.80
2019-04-01T09:17:40.410Z,17.00
2019-04-01T09:20:11.397Z,17.10
2019-04-01T09:22:43.321Z,16.90
2019-04-01T09:25:13.965Z,16.90
2019-04-01T09:27:46.010Z,17.00
2019-04-01T09:30:18.869Z,17.20
2019-04-01T09:32:49.509Z,17.40
2019-04-01T09:35:21.000Z,17.50
2019-04-01T09:37:51.615Z,17.50
2019-04-01T09:40:22.659Z,17.70
2019-04-01T09:42:53.973Z,17.90
2019-04-01T09:45:24.524Z,17.90
2019-04-01T09:47:55.134Z,17.70
2019-04-01T09:50:25.652Z,18.00
2019-04-01T09:52:56.697Z,18.00
2019-04-01T09:55:29.370Z,18.00
2019-04-01T09:57:59.961Z,18.00
2019-04-01T10:00:32.040Z,18.20
2019-04-01T10:03:02.668Z,18.70
2019-04-01T10:05:33.744Z,18.90
2019-04-01T10:08:04.968Z,18.90
2019-04-01T10:10:37.174Z,18.80
2019-04-01T10:13:08.164Z,19.00
2019-04-01T10:15:38.809Z,18.70
2019-04-01T10:18:09.423Z,18.80
2019-04-01T10:20:40.526Z,18.90
2019-04-01T10:23:12.707Z,19.20
2019-04-01T10:25:45.305Z,19.30
2019-04-01T10:28:15.868Z,19.30
2019-04-01T10:30:46.850Z,19.50
2019-04-01T10:33:17.539Z,19.60
2019-04-01T10:35:48.579Z,19.70
2019-04-01T10:38:19.597Z,19.40
2019-04-01T10:40:50.121Z,19.60
2019-04-01T10:43:21.105Z,19.90
2019-04-01T10:45:51.686Z,20.00
2019-04-01T10:48:22.384Z,20.20
2019-04-01T10:50:53.746Z,20.30
2019-04-01T10:53:24.797Z,20.30
2019-04-01T10:55:55.203Z,20.20
2019-04-01T10:58:26.191Z,20.10
2019-04-01T11:00:56.790Z,19.90
2019-04-01T11:03:27.527Z,20.10
2019-04-01T11:05:58.093Z,20.20
2019-04-01T11:08:28.635Z,20.40
2019-04-01T11:10:59.613Z,20.50
2019-04-01T11:13:30.348Z,21.00
2019-04-01T11:16:00.874Z,21.10
2019-04-01T11:18:31.883Z,21.40
2019-04-01T11:21:02.373Z,21.40
2019-04-01T11:23:35.025Z,21.60
2019-04-01T11:26:06.037Z,21.70
2019-04-01T11:28:36.640Z,21.60
2019-04-01T11:31:07.215Z,21.90
2019-04-01T11:33:38.296Z,21.80
2019-04-01T11:36:08.893Z,21.80
2019-04-01T11:38:39.942Z,21.70
2019-04-01T11:41:11.422Z,22.00
2019-04-01T11:43:42.055Z,22.10
2019-04-01T11:46:12.974Z,22.00
2019-04-01T11:48:43.589Z,21.70
2019-04-01T11:51:14.617Z,21.60
2019-04-01T11:53:45.128Z,21.80
2019-04-01T11:56:15.658Z,22.00
2019-04-01T11:58:47.415Z,22.30
2019-04-01T12:01:18.904Z,22.50
2019-04-01T12:03:49.973Z,22.70
2019-04-01T12:06:21.268Z,23.00
2019-04-01T12:08:53.036Z,23.30
2019-04-01T12:11:24.530Z,23.20
2019-04-01T12:13:56.911Z,23.40
2019-04-01T12:16:27.638Z,23.70
2019-04-01T12:18:58.182Z,23.90
2019-04-01T12:21:28.857Z,23.90
2019-04-01T12:23:59.816Z,23.80
2019-04-01T12:26:30.391Z,23.80
2019-04-01T12:29:00.934Z,24.10
2019-04-01T12:31:32.426Z,24.20
2019-04-01T12:34:03.058Z,24.60
2019-04-01T12:36:34.023Z,24.30
2019-04-01T12:39:06.354Z,24.50
2019-04-01T12:41:36.985Z,24.60
2019-04-01T12:44:07.617Z,24.80
2019-04-01T12:46:38.620Z,24.70
2019-04-01T12:49:09.129Z,24.90
2019-04-01T12:51:39.709Z,25.00
2019-04-01T12:54:10.334Z,25.20
2019-04-01T12:56:40.885Z,25.30
2019-04-01T12:59:11.835Z,25.30
2019-04-01T13:01:42.797Z,24.90
2019-04-01T13:04:13.313Z,25.00
2019-04-01T13:06:44.816Z,25.00
2019-04-01T13:09:15.760Z,25.30
2019-04-01T13:11:46.305Z,25.60
2019-04-01T13:14:16.850Z,25.70
2019-04-01T13:16:47.808Z,25.90
2019-04-01T13:19:18.729Z,25.70
2019-04-01T13:21:50.429Z,25.90
2019-04-01T13:24:21.397Z,25.90
2019-04-01T13:26:51.984Z,25.40
2019-04-01T13:29:24.029Z,25.40
2019-04-01T13:31:54.781Z,25.40
2019-04-01T13:34:25.336Z,25.70
2019-04-01T13:36:55.908Z,25.80
2019-04-01T13:39:27.344Z,25.50
2019-04-01T13:41:59.160Z,25.90
2019-04-01T13:44:36.958Z,25.70
2019-04-01T13:47:01.950Z,25.50
2019-04-01T13:49:32.598Z,25.50
2019-04-01T13:52:03.758Z,25.70
2019-04-01T13:54:34.996Z,25.90
2019-04-01T13:57:05.566Z,25.80
2019-04-01T13:59:48.571Z,26.10
2019-04-01T14:02:08.741Z,25.90
2019-04-01T14:04:39.289Z,25.90
2019-04-01T14:07:09.899Z,25.80
2019-04-01T14:09:41.583Z,25.90
2019-04-01T14:12:12.484Z,25.80
2019-04-01T14:14:43.082Z,25.70
2019-04-01T14:17:13.684Z,25.90
2019-04-01T14:19:44.705Z,25.90
2019-04-01T14:22:15.716Z,25.90
2019-04-01T14:24:46.313Z,25.50
2019-04-01T14:27:17.300Z,25.40
2019-04-01T14:29:48.309Z,25.40
2019-04-01T14:32:18.873Z,25.10
2019-04-01T14:34:50.432Z,25.20
2019-04-01T14:37:25.615Z,25.10
2019-04-01T14:39:55.788Z,25.00
2019-04-01T14:42:27.141Z,24.90
2019-04-01T14:45:01.004Z,24.80
2019-04-01T14:47:32.679Z,25.00
2019-04-01T14:50:07.526Z,25.10
2019-04-01T14:52:36.625Z,25.00
2019-04-01T14:55:07.392Z,24.80
2019-04-01T14:57:38.389Z,24.70
2019-04-01T15:00:13.202Z,24.50
2019-04-01T15:02:43.797Z,24.40
2019-04-01T15:05:15.023Z,24.20
2019-04-01T15:07:46.975Z,24.20
2019-04-01T15:10:18.532Z,24.40
2019-04-01T15:13:03.991Z,24.20
2019-04-01T15:15:22.712Z,24.30
2019-04-01T15:17:53.635Z,24.20
2019-04-01T15:20:25.146Z,24.00
2019-04-01T15:22:56.555Z,23.90
2019-04-01T15:25:27.621Z,23.80
2019-04-01T15:27:58.647Z,24.00
2019-04-01T15:30:31.978Z,23.80
2019-04-01T15:33:02.907Z,23.80
2019-04-01T15:35:33.550Z,23.60
2019-04-01T15:38:04.078Z,23.50
2019-04-01T15:40:35.024Z,23.50
2019-04-01T15:43:06.116Z,23.30
2019-04-01T15:45:37.092Z,23.30
2019-04-01T15:48:08.614Z,23.30
2019-04-01T15:50:39.225Z,23.10
2019-04-01T15:53:10.825Z,23.00
2019-04-01T15:55:41.397Z,22.70
2019-04-01T15:58:12.489Z,22.60
2019-04-01T16:00:43.471Z,22.40
2019-04-01T16:03:14.567Z,22.30
2019-04-01T16:05:45.080Z,22.10
2019-04-01T16:08:16.115Z,21.90
2019-04-01T16:10:46.672Z,21.80
2019-04-01T16:13:17.185Z,21.60
2019-04-01T16:15:47.713Z,21.40
2019-04-01T16:18:18.225Z,21.20
2019-04-01T16:20:48.770Z,21.00
2019-04-01T16:23:19.477Z,20.50
2019-04-01T16:25:49.968Z,20.30
2019-04-01T16:28:20.505Z,20.00
2019-04-01T16:30:51.012Z,19.70
2019-04-01T16:33:21.598Z,19.40
2019-04-01T16:35:52.504Z,19.20
2019-04-01T16:38:23.146Z,19.00
2019-04-01T16:40:53.739Z,18.90
2019-04-01T16:43:24.745Z,18.70
2019-04-01T16:45:56.058Z,18.30
2019-04-01T16:48:34.289Z,18.00
2019-04-01T16:51:04.825Z,17.70
2019-04-01T16:53:36.594Z,17.50
2019-04-01T16:56:07.224Z,17.30
2019-04-01T16:58:38.959Z,17.20
2019-04-01T17:01:09.995Z,17.00
2019-04-01T17:03:42.404Z,16.90
2019-04-01T17:06:15.122Z,16.80
2019-04-01T17:08:46.313Z,16.70
2019-04-01T17:11:16.715Z,16.50
2019-04-01T17:13:48.513Z,16.40
2019-04-01T17:16:18.965Z,16.30
2019-04-01T17:18:49.953Z,16.20
2019-04-01T17:21:20.567Z,16.10
2019-04-01T17:23:51.166Z,16.00
2019-04-01T17:26:23.117Z,15.90
2019-04-01T17:28:53.993Z,15.80
2019-04-01T17:31:24.908Z,15.80
2019-04-01T17:33:55.872Z,15.70
2019-04-01T17:36:30.913Z,15.60
2019-04-01T17:39:02.596Z,15.60
2019-04-01T17:41:34.380Z,15.50
2019-04-01T17:44:06.735Z,15.40
2019-04-01T17:46:37.696Z,15.40
2019-04-01T17:49:08.677Z,15.30
2019-04-01T17:51:39.209Z,15.20
2019-04-01T17:54:10.413Z,15.20
2019-04-01T17:56:42.089Z,15.10
2019-04-01T17:59:13.267Z,15.10
2019-04-01T18:01:45.499Z,15.00
2019-04-01T18:04:16.306Z,15.00
2019-04-01T18:06:47.411Z,14.90
2019-04-01T18:09:18.932Z,14.90
2019-04-01T18:11:50.021Z,14.80
2019-04-01T18:14:21.120Z,14.80
2019-04-01T18:16:52.340Z,14.80
2019-04-01T18:19:24.989Z,14.80
2019-04-01T18:21:55.975Z,14.80
2019-04-01T18:24:26.470Z,14.70
2019-04-01T18:26:58.537Z,14.70
2019-04-01T18:29:29.484Z,14.70
2019-04-01T18:32:00.094Z,14.60
2019-04-01T18:34:30.603Z,14.50
2019-04-01T18:37:01.227Z,14.50
2019-04-01T18:39:32.241Z,14.40
2019-04-01T18:42:03.085Z,14.40
2019-04-01T18:44:34.322Z,14.30
2019-04-01T18:47:05.516Z,14.30
2019-04-01T18:49:36.104Z,14.20
2019-04-01T18:52:10.073Z,14.20
2019-04-01T18:54:43.061Z,14.20
2019-04-01T18:57:14.274Z,14.10
2019-04-01T18:59:45.332Z,14.10
2019-04-01T19:02:16.000Z,14.10
2019-04-01T19:04:47.041Z,14.00
2019-04-01T19:07:21.726Z,14.00
2019-04-01T19:09:51.053Z,14.00
2019-04-01T19:12:21.730Z,13.90
2019-04-01T19:14:54.289Z,13.90
2019-04-01T19:17:24.525Z,13.80
2019-04-01T19:19:55.404Z,13.80
2019-04-01T19:22:31.449Z,13.80
2019-04-01T19:25:03.013Z,13.70
2019-04-01T19:27:33.663Z,13.70
2019-04-01T19:30:05.840Z,13.60
2019-04-01T19:32:38.196Z,13.60
2019-04-01T19:35:09.580Z,13.60
2019-04-01T19:37:41.659Z,13.50
2019-04-01T19:40:13.763Z,13.50
2019-04-01T19:42:44.679Z,13.50
2019-04-01T19:45:16.485Z,13.40
2019-04-01T19:47:47.515Z,13.40
2019-04-01T19:50:19.453Z,13.40
2019-04-01T19:52:50.599Z,13.30
2019-04-01T19:55:21.598Z,13.30
2019-04-01T19:57:52.185Z,13.30
2019-04-01T20:00:28.072Z,13.20
2019-04-01T20:03:03.113Z,13.20
2019-04-01T20:05:33.702Z,13.10
2019-04-01T20:08:04.746Z,13.10
2019-04-01T20:10:35.825Z,13.10
2019-04-01T20:13:10.301Z,13.00
2019-04-01T20:15:41.738Z,13.00
2019-04-01T20:18:36.230Z,13.00
2019-04-01T20:21:08.293Z,12.90
2019-04-01T20:23:38.876Z,12.90
2019-04-01T20:26:09.584Z,12.90
2019-04-01T20:28:45.049Z,12.90
2019-04-01T20:31:16.159Z,12.80
2019-04-01T20:33:49.153Z,12.80
2019-04-01T20:36:28.487Z,12.70
2019-04-01T20:38:58.165Z,12.70
2019-04-01T20:41:28.737Z,12.60
2019-04-01T20:43:59.813Z,12.60
2019-04-01T20:46:30.368Z,12.60
2019-04-01T20:49:02.210Z,12.50
2019-04-01T20:51:33.084Z,12.50
2019-04-01T20:54:03.621Z,12.50
2019-04-01T20:56:34.484Z,12.40
2019-04-01T20:59:05.656Z,12.40
2019-04-01T21:01:36.181Z,12.40
2019-04-01T21:04:07.161Z,12.40
2019-04-01T21:06:37.849Z,12.30
2019-04-01T21:09:10.275Z,12.20
2019-04-01T21:11:42.288Z,12.20
2019-04-01T21:14:16.512Z,12.20
2019-04-01T21:16:48.600Z,12.20
2019-04-01T21:19:19.547Z,12.10
2019-04-01T21:21:50.640Z,12.00
2019-04-01T21:24:21.179Z,12.00
2019-04-01T21:26:52.134Z,12.00
2019-04-01T21:29:23.016Z,12.00
2019-04-01T21:31:54.405Z,12.00
2019-04-01T21:34:25.414Z,11.90
2019-04-01T21:36:57.666Z,11.90
2019-04-01T21:39:30.047Z,11.90
2019-04-01T21:42:00.897Z,11.80
2019-04-01T21:44:31.515Z,11.80
2019-04-01T21:47:02.554Z,11.80
2019-04-01T21:49:33.579Z,11.70
2019-04-01T21:52:05.200Z,11.70
2019-04-01T21:54:36.369Z,11.60
2019-04-01T21:57:07.417Z,11.60
2019-04-01T21:59:39.072Z,11.50
2019-04-01T22:02:10.297Z,11.50
2019-04-01T22:04:41.310Z,11.50
2019-04-01T22:07:12.233Z,11.40
2019-04-01T22:09:42.907Z,11.40
2019-04-01T22:12:13.421Z,11.40
2019-04-01T22:14:43.953Z,11.40
2019-04-01T22:17:14.624Z,11.40
2019-04-01T22:19:45.212Z,11.40
2019-04-01T22:22:15.790Z,11.40
2019-04-01T22:24:48.712Z,11.30
2019-04-01T22:27:20.312Z,11.30
2019-04-01T22:29:52.206Z,11.30
2019-04-01T22:32:23.186Z,11.20
2019-04-01T22:34:53.797Z,11.20
2019-04-01T22:37:27.443Z,11.10
2019-04-01T22:39:57.048Z,11.10
2019-04-01T22:42:28.530Z,11.10
2019-04-01T22:44:59.493Z,11.00
2019-04-01T22:47:30.416Z,11.00
2019-04-01T22:50:01.070Z,11.00
2019-04-01T22:52:32.612Z,10.90
2019-04-01T22:55:04.385Z,10.90
2019-04-01T22:57:34.912Z,10.90
2019-04-01T23:00:06.033Z,10.90
2019-04-01T23:02:38.626Z,11.00
2019-04-01T23:05:09.604Z,10.90
2019-04-01T23:07:40.685Z,10.90
2019-04-01T23:10:11.890Z,10.90
2019-04-01T23:12:42.905Z,10.80
2019-04-01T23:15:15.381Z,10.90
2019-04-01T23:17:46.278Z,10.80
2019-04-01T23:20:16.876Z,10.80
2019-04-01T23:22:49.058Z,10.80
2019-04-01T23:25:19.991Z,10.80
2019-04-01T23:27:50.490Z,10.80
2019-04-01T23:30:20.988Z,10.70
2019-04-01T23:32:51.532Z,10.70
2019-04-01T23:35:22.106Z,10.70
2019-04-01T23:37:53.318Z,10.60
2019-04-01T23:40:23.877Z,10.60
2019-04-01T23:42:54.462Z,10.50
2019-04-01T23:45:25.024Z,10.40
2019-04-01T23:47:55.581Z,10.40
2019-04-01T23:50:26.126Z,10.40
2019-04-01T23:52:59.557Z,10.40
2019-04-01T23:55:30.112Z,10.30
2019-04-01T23:58:00.677Z,10.30
